Time;durP1;ratioP1;P1;durP2;ratioP2;P2;SDS_P1;SDS_P2;PMS_P1;PMS_P2;Temp;Humidity;BMP_temperature;BMP_pressure;BME280_temperature;BME280_humidity;BME280_pressure;Samples;Min_cycle;Max_cycle;Signal;HPM_P1;HPM_P2
2022/05/11 00:02:01;;;;;;;1.20;1.20;;;17.50;99.90;;;;;;5034106;28;20319;-68
2022/05/11 00:04:28;;;;;;;1.50;1.40;;;17.50;99.90;;;;;;5010978;28;20203;-68
2022/05/11 00:06:55;;;;;;;1.10;1.10;;;17.40;99.90;;;;;;5016473;28;20208;-69
2022/05/11 00:09:22;;;;;;;1.13;1.13;;;17.40;99.90;;;;;;5022304;28;20312;-68
2022/05/11 00:11:49;;;;;;;1.10;1.10;;;17.40;99.90;;;;;;5023615;28;20221;-68
2022/05/11 00:14:16;;;;;;;1.20;1.20;;;17.30;99.90;;;;;;5029831;28;20204;-68
2022/05/11 00:16:44;;;;;;;1.10;1.10;;;17.30;99.90;;;;;;5032584;28;20235;-68
2022/05/11 00:19:11;;;;;;;1.10;1.10;;;17.40;99.90;;;;;;5033454;28;20232;-68
2022/05/11 00:21:38;;;;;;;1.30;1.30;;;17.30;99.90;;;;;;5030053;28;20303;-68
2022/05/11 00:24:06;;;;;;;1.10;1.10;;;17.30;99.90;;;;;;5033598;28;20201;-69
2022/05/11 00:26:33;;;;;;;1.20;1.20;;;17.30;99.90;;;;;;5035923;28;20204;-68
2022/05/11 00:29:00;;;;;;;1.10;1.10;;;17.30;99.90;;;;;;5036593;28;20228;-67
2022/05/11 00:31:27;;;;;;;1.20;1.20;;;17.30;99.90;;;;;;5032414;28;20232;-68
2022/05/11 00:33:56;;;;;;;1.13;1.13;;;17.20;99.90;;;;;;5032039;28;20244;-68
2022/05/11 00:36:22;;;;;;;1.30;1.30;;;17.10;99.90;;;;;;5033407;28;20217;-69
2022/05/11 00:38:49;;;;;;;1.20;1.20;;;17.00;99.90;;;;;;5032229;28;20578;-68
2022/05/11 00:41:16;;;;;;;1.13;1.13;;;17.00;99.90;;;;;;5031035;28;20619;-66
2022/05/11 00:43:52;;;;;;;1.10;1.10;;;17.10;99.90;;;;;;5032966;28;20662;-68
2022/05/11 00:46:22;;;;;;;1.17;1.17;;;17.10;99.90;;;;;;5034485;28;20200;-67
2022/05/11 00:51:51;;;;;;;1.40;1.40;;;17.00;99.90;;;;;;5029824;28;20721;-68
2022/05/11 00:54:20;;;;;;;1.20;1.20;;;17.00;99.90;;;;;;5030911;28;20196;-68
2022/05/11 00:56:49;;;;;;;1.10;1.10;;;17.00;99.90;;;;;;5033205;28;20747;-68
2022/05/11 00:59:20;;;;;;;1.13;1.13;;;17.00;99.90;;;;;;5033415;28;20719;-67
2022/05/11 01:01:47;;;;;;;0.90;0.90;;;16.90;99.90;;;;;;5031937;28;20312;-69
2022/05/11 01:04:17;;;;;;;1.23;1.23;;;16.90;99.90;;;;;;5030036;28;20279;-68
2022/05/11 01:06:46;;;;;;;1.20;1.20;;;16.80;99.90;;;;;;5032873;28;20251;-68
2022/05/11 01:09:13;;;;;;;1.30;1.20;;;16.80;99.90;;;;;;5024594;28;20307;-69
2022/05/11 01:11:44;;;;;;;1.15;1.13;;;16.80;99.90;;;;;;5028379;28;20267;-67
2022/05/11 01:14:13;;;;;;;1.20;1.20;;;16.70;99.90;;;;;;5030606;28;20204;-67
2022/05/11 01:16:42;;;;;;;1.30;1.30;;;16.70;99.90;;;;;;5036293;28;20215;-68
2022/05/11 01:19:15;;;;;;;1.17;1.17;;;16.60;99.90;;;;;;5041355;28;20566;-68
2022/05/11 01:21:53;;;;;;;1.40;1.30;;;16.60;99.90;;;;;;5038139;28;20252;-68
2022/05/11 01:24:32;;;;;;;1.20;1.20;;;16.60;99.90;;;;;;5029329;28;20730;-67
2022/05/11 01:26:59;;;;;;;1.20;1.20;;;16.60;99.90;;;;;;5014623;28;20213;-69
2022/05/11 01:29:28;;;;;;;1.10;1.10;;;16.50;99.90;;;;;;5014907;28;20221;-68
2022/05/11 01:31:55;;;;;;;1.20;1.20;;;16.50;99.90;;;;;;5021553;28;20597;-67
2022/05/11 01:34:25;;;;;;;1.20;1.20;;;16.40;99.90;;;;;;5016181;28;20681;-68
2022/05/11 01:36:56;;;;;;;1.33;1.30;;;16.40;99.90;;;;;;5014962;28;20216;-68
2022/05/11 01:39:23;;;;;;;1.20;1.20;;;16.40;99.90;;;;;;5015093;28;20197;-68
2022/05/11 01:41:54;;;;;;;1.30;1.30;;;16.40;99.90;;;;;;5013722;28;20229;-68
2022/05/11 01:44:22;;;;;;;1.10;1.10;;;16.40;99.90;;;;;;5014809;28;20205;-68
2022/05/11 01:46:53;;;;;;;1.20;1.20;;;16.40;99.90;;;;;;5014808;28;20292;-68
2022/05/11 01:49:21;;;;;;;1.20;1.20;;;16.40;99.90;;;;;;5014979;28;20228;-68
2022/05/11 01:51:48;;;;;;;1.20;1.20;;;16.40;99.90;;;;;;5013301;28;20315;-68
2022/05/11 01:54:15;;;;;;;1.10;1.10;;;16.30;99.90;;;;;;5014068;28;20296;-67
2022/05/11 01:56:42;;;;;;;1.20;1.20;;;16.30;99.90;;;;;;5014191;28;20276;-68
2022/05/11 01:59:11;;;;;;;1.20;1.20;;;16.30;99.90;;;;;;5014143;28;20248;-68
2022/05/11 02:01:40;;;;;;;1.10;1.10;;;16.30;99.90;;;;;;5013083;28;20329;-68
2022/05/11 02:07:49;;;;;;;1.20;1.20;;;16.30;99.90;;;;;;5016543;28;20212;-68
2022/05/11 02:09:40;;;;;;;1.20;1.20;;;16.20;99.90;;;;;;5012900;28;20224;-69
2022/05/11 02:12:09;;;;;;;1.33;1.33;;;16.20;99.90;;;;;;5013451;28;20236;-67
2022/05/11 02:14:39;;;;;;;1.58;1.23;;;16.20;99.90;;;;;;5014261;28;20252;-68
2022/05/11 02:17:06;;;;;;;1.40;1.30;;;16.20;99.90;;;;;;5013883;28;20205;-69
2022/05/11 02:19:33;;;;;;;1.23;1.23;;;16.10;99.90;;;;;;5021391;28;20233;-67
2022/05/11 02:22:00;;;;;;;1.10;1.10;;;16.10;99.90;;;;;;5033846;28;20256;-67
2022/05/11 02:24:27;;;;;;;1.30;1.20;;;16.10;99.90;;;;;;5033609;28;20236;-68
2022/05/11 02:26:54;;;;;;;1.30;1.27;;;16.10;99.90;;;;;;5033574;28;20645;-68
2022/05/11 02:29:21;;;;;;;1.10;1.10;;;16.10;99.90;;;;;;5030850;28;20239;-68
2022/05/11 02:31:51;;;;;;;1.23;1.23;;;16.10;99.90;;;;;;5023465;28;20220;-68
2022/05/11 02:36:58;;;;;;;1.20;1.20;;;16.10;99.90;;;;;;5031584;28;20192;-67
2022/05/11 02:39:25;;;;;;;1.30;1.30;;;16.10;99.90;;;;;;5033041;28;20295;-67
2022/05/11 02:41:53;;;;;;;1.10;1.10;;;16.10;99.90;;;;;;5018707;28;20304;-67
2022/05/11 02:44:20;;;;;;;1.30;1.30;;;16.10;99.90;;;;;;5012434;28;20621;-68
2022/05/11 02:46:47;;;;;;;1.20;1.20;;;16.10;99.90;;;;;;5013104;28;20300;-68
2022/05/11 02:49:16;;;;;;;1.30;1.30;;;16.00;99.90;;;;;;5017125;28;20208;-67
2022/05/11 02:51:43;;;;;;;1.10;1.10;;;16.00;99.90;;;;;;5030241;28;20225;-68
2022/05/11 02:54:10;;;;;;;1.30;1.30;;;16.10;99.90;;;;;;5025286;28;20817;-68
2022/05/11 02:56:37;;;;;;;1.17;1.17;;;16.00;99.90;;;;;;5036116;28;20299;-67
2022/05/11 02:59:03;;;;;;;1.10;1.10;;;16.00;99.90;;;;;;5036429;28;20303;-67
2022/05/11 03:01:30;;;;;;;1.30;1.30;;;16.00;99.90;;;;;;5020255;28;20284;-68
2022/05/11 03:03:58;;;;;;;1.17;1.17;;;16.00;99.90;;;;;;5031151;28;20403;-67
2022/05/11 03:06:26;;;;;;;1.13;1.13;;;16.00;99.90;;;;;;5024297;28;20207;-67
2022/05/11 03:08:53;;;;;;;1.33;1.33;;;16.00;99.90;;;;;;5032161;28;20243;-68
2022/05/11 03:11:20;;;;;;;1.67;1.23;;;15.90;99.90;;;;;;5032491;28;20228;-68
2022/05/11 03:13:47;;;;;;;1.20;1.20;;;16.00;99.90;;;;;;5023281;28;20241;-69
2022/05/11 03:16:14;;;;;;;1.17;1.17;;;15.90;99.90;;;;;;5034527;28;20205;-70
2022/05/11 03:18:41;;;;;;;1.20;1.20;;;15.90;99.90;;;;;;5038694;28;20220;-67
2022/05/11 03:21:08;;;;;;;1.40;1.30;;;15.80;99.90;;;;;;5028859;28;20683;-68
2022/05/11 03:23:36;;;;;;;1.38;1.38;;;15.90;99.90;;;;;;5034846;28;20231;-67
2022/05/11 03:26:03;;;;;;;1.02;1.02;;;15.70;99.90;;;;;;5044174;28;20236;-67
2022/05/11 03:28:30;;;;;;;1.53;1.43;;;15.70;99.90;;;;;;5043682;28;20204;-67
2022/05/11 03:30:57;;;;;;;1.20;1.20;;;15.70;99.90;;;;;;5040569;28;20307;-67
2022/05/11 03:36:08;;;;;;;1.43;1.27;;;15.60;99.90;;;;;;5023636;28;20577;-68
2022/05/11 03:38:36;;;;;;;1.20;1.20;;;15.60;99.90;;;;;;5014835;28;20197;-67
2022/05/11 03:41:03;;;;;;;1.30;1.07;;;15.60;99.90;;;;;;5011874;28;20205;-69
2022/05/11 03:43:30;;;;;;;1.20;1.20;;;15.70;99.90;;;;;;5016152;28;20316;-68
2022/05/11 03:45:59;;;;;;;1.55;1.42;;;15.70;99.90;;;;;;5017583;28;20204;-68
2022/05/11 03:48:26;;;;;;;1.20;1.20;;;15.70;99.90;;;;;;5019132;28;20200;-68
2022/05/11 03:50:53;;;;;;;1.48;1.40;;;15.60;99.90;;;;;;5018454;28;20296;-68
2022/05/11 03:53:20;;;;;;;1.20;1.20;;;15.60;99.90;;;;;;5018141;28;20271;-68
2022/05/11 03:55:48;;;;;;;1.27;1.27;;;15.60;99.90;;;;;;5018083;28;20296;-67
2022/05/11 03:58:15;;;;;;;1.27;1.27;;;15.60;99.90;;;;;;5018786;28;20287;-68
2022/05/11 04:00:42;;;;;;;1.00;1.00;;;15.70;99.90;;;;;;5018147;28;20239;-67
2022/05/11 04:03:09;;;;;;;1.17;1.17;;;15.70;99.90;;;;;;5019330;28;20255;-67
2022/05/11 04:05:36;;;;;;;1.20;1.20;;;15.70;99.90;;;;;;5018397;28;20296;-66
2022/05/11 04:08:03;;;;;;;1.17;1.17;;;15.70;99.90;;;;;;5018408;28;20679;-69
2022/05/11 04:10:30;;;;;;;1.20;1.20;;;15.70;99.90;;;;;;5017872;28;20332;-66
2022/05/11 04:13:01;;;;;;;1.15;1.15;;;15.80;99.90;;;;;;5018885;28;20232;-68
2022/05/11 04:15:28;;;;;;;1.20;1.20;;;15.80;99.90;;;;;;5019089;28;20209;-67
2022/05/11 04:17:55;;;;;;;1.40;1.30;;;15.80;99.90;;;;;;5018371;28;20295;-68
2022/05/11 04:20:23;;;;;;;1.17;1.17;;;15.90;99.90;;;;;;5024935;28;20346;-67
2022/05/11 04:22:50;;;;;;;1.00;1.00;;;15.80;99.90;;;;;;5029660;28;20785;-68
2022/05/11 04:25:18;;;;;;;1.20;1.20;;;15.80;99.90;;;;;;5038873;28;20205;-68
2022/05/11 04:27:48;;;;;;;1.30;1.30;;;15.80;99.90;;;;;;5038462;28;20208;-67
2022/05/11 04:30:18;;;;;;;1.20;1.20;;;15.80;99.90;;;;;;5037724;28;20605;-69
2022/05/11 04:32:45;;;;;;;1.20;1.20;;;15.80;99.90;;;;;;5038423;28;20228;-68
2022/05/11 04:35:12;;;;;;;1.20;1.20;;;15.80;99.90;;;;;;5038436;28;20637;-67
2022/05/11 04:37:39;;;;;;;1.30;1.30;;;15.90;99.90;;;;;;5038017;28;20288;-68
2022/05/11 04:40:08;;;;;;;1.23;1.23;;;15.80;99.90;;;;;;5038310;28;20291;-67
2022/05/11 04:42:35;;;;;;;1.10;1.10;;;15.80;99.90;;;;;;5031227;28;20224;-68
2022/05/11 04:45:02;;;;;;;1.10;1.10;;;15.90;99.90;;;;;;5028038;28;20925;-67
2022/05/11 04:47:30;;;;;;;1.20;1.20;;;15.90;99.90;;;;;;5029448;28;20225;-67
2022/05/11 04:49:57;;;;;;;1.20;1.20;;;15.90;99.90;;;;;;5029807;28;20335;-67
2022/05/11 04:52:24;;;;;;;1.20;1.20;;;16.00;99.90;;;;;;5030005;28;20611;-68
2022/05/11 04:54:51;;;;;;;1.33;1.20;;;16.00;99.90;;;;;;5033927;28;20236;-68
2022/05/11 04:57:19;;;;;;;1.20;1.20;;;16.00;99.90;;;;;;5036599;28;20205;-69
2022/05/11 04:59:46;;;;;;;1.30;1.30;;;16.00;99.90;;;;;;5036514;28;20219;-69
2022/05/11 05:02:16;;;;;;;1.20;1.20;;;16.10;99.90;;;;;;5037275;28;20304;-67
2022/05/11 05:04:45;;;;;;;1.20;1.20;;;16.00;99.90;;;;;;5038535;28;20283;-67
2022/05/11 05:07:12;;;;;;;1.40;1.30;;;16.10;99.90;;;;;;5034642;28;20204;-67
2022/05/11 05:09:38;;;;;;;1.10;1.10;;;16.10;99.90;;;;;;5031527;28;20285;-69
2022/05/11 05:12:07;;;;;;;1.10;1.10;;;16.20;99.90;;;;;;5036290;28;20311;-68
2022/05/11 05:14:34;;;;;;;1.30;1.30;;;16.30;99.90;;;;;;5037789;28;20389;-68
2022/05/11 05:17:01;;;;;;;1.20;1.20;;;16.50;99.90;;;;;;5039815;28;20283;-68
2022/05/11 05:19:29;;;;;;;1.00;1.00;;;16.70;99.90;;;;;;5042009;28;20220;-67
2022/05/11 05:21:57;;;;;;;1.30;1.30;;;16.80;99.90;;;;;;5024753;28;20224;-68
2022/05/11 05:24:25;;;;;;;1.20;1.20;;;16.90;99.90;;;;;;5024662;28;20586;-68
2022/05/11 05:26:51;;;;;;;1.40;1.30;;;17.00;99.90;;;;;;5025801;28;20229;-68
2022/05/11 05:32:03;;;;;;;1.33;1.23;;;17.30;99.90;;;;;;5028392;28;20240;-68
2022/05/11 05:34:30;;;;;;;1.20;1.20;;;17.50;99.90;;;;;;5020869;28;20573;-68
2022/05/11 05:36:59;;;;;;;1.20;1.20;;;17.60;99.90;;;;;;5015066;28;20292;-68
2022/05/11 05:39:25;;;;;;;1.27;1.27;;;17.80;99.90;;;;;;5020446;28;20291;-68
2022/05/11 05:41:52;;;;;;;1.33;1.33;;;17.90;99.90;;;;;;5016956;28;20307;-68
2022/05/11 05:44:20;;;;;;;1.40;1.40;;;18.10;99.90;;;;;;5033398;28;20404;-67
2022/05/11 05:46:47;;;;;;;1.27;1.23;;;18.30;99.90;;;;;;5030781;28;20287;-68
2022/05/11 05:49:14;;;;;;;1.42;1.33;;;18.50;99.90;;;;;;5025989;28;20228;-68
2022/05/11 05:51:42;;;;;;;1.10;1.10;;;18.70;99.90;;;;;;5030869;28;20267;-68
2022/05/11 05:54:11;;;;;;;1.15;1.15;;;18.80;99.90;;;;;;5027083;28;20565;-68
2022/05/11 05:56:37;;;;;;;1.10;1.00;;;18.90;99.90;;;;;;5033322;28;20290;-68
2022/05/11 05:59:09;;;;;;;1.43;1.20;;;19.00;99.90;;;;;;5034673;28;20255;-63
2022/05/11 06:01:36;;;;;;;1.25;1.23;;;19.20;99.90;;;;;;5032124;28;20269;-63
2022/05/11 06:04:05;;;;;;;1.53;1.43;;;19.30;99.90;;;;;;5034140;28;20823;-65
2022/05/11 06:06:32;;;;;;;1.20;1.20;;;19.50;99.90;;;;;;5031244;28;20208;-64
2022/05/11 06:08:58;;;;;;;1.10;1.10;;;19.70;99.90;;;;;;5026775;28;20296;-65
2022/05/11 06:11:27;;;;;;;1.20;1.20;;;19.90;99.90;;;;;;5025885;28;20232;-62
2022/05/11 06:13:54;;;;;;;1.20;1.20;;;19.90;99.90;;;;;;5028567;28;20229;-64
2022/05/11 06:16:21;;;;;;;1.10;1.10;;;20.00;99.90;;;;;;5022960;28;20204;-64
2022/05/11 06:18:48;;;;;;;1.25;1.20;;;20.10;99.90;;;;;;5024113;28;20296;-64
2022/05/11 06:21:16;;;;;;;1.20;1.20;;;20.20;99.90;;;;;;5012717;28;20385;-69
2022/05/11 06:23:44;;;;;;;1.20;1.20;;;20.30;99.90;;;;;;5017714;28;20232;-68
2022/05/11 06:26:11;;;;;;;1.10;1.10;;;20.30;99.90;;;;;;5025180;28;20661;-70
2022/05/11 06:28:40;;;;;;;1.00;1.00;;;20.50;99.90;;;;;;5023824;28;20287;-69
2022/05/11 06:31:08;;;;;;;1.20;1.20;;;20.60;99.90;;;;;;5025444;28;20225;-68
2022/05/11 06:33:35;;;;;;;1.40;1.30;;;20.80;99.90;;;;;;5018753;28;20311;-67
2022/05/11 06:36:02;;;;;;;1.40;1.30;;;21.00;99.90;;;;;;5019263;28;20220;-67
2022/05/11 06:38:29;;;;;;;1.40;1.30;;;21.20;99.90;;;;;;5024030;28;20630;-68
2022/05/11 06:40:56;;;;;;;1.20;1.10;;;21.30;99.90;;;;;;5024692;28;20631;-70
2022/05/11 06:43:26;;;;;;;1.10;1.10;;;21.50;99.90;;;;;;5028947;28;20247;-68
2022/05/11 06:45:54;;;;;;;0.95;0.95;;;21.60;99.90;;;;;;5027459;28;20197;-67
2022/05/11 06:48:21;;;;;;;1.10;1.10;;;21.90;99.90;;;;;;5032582;28;20236;-68
2022/05/11 06:50:48;;;;;;;1.10;1.10;;;22.10;99.90;;;;;;5030438;28;20211;-69
2022/05/11 06:53:16;;;;;;;1.10;1.10;;;22.20;99.90;;;;;;5035180;28;20334;-68
2022/05/11 07:01:15;;;;;;;1.35;1.25;;;22.60;99.90;;;;;;5024796;28;20204;-67
2022/05/11 07:03:42;;;;;;;1.90;1.10;;;22.80;99.90;;;;;;5052654;22;20306;-63
2022/05/11 07:06:09;;;;;;;0.90;0.90;;;22.90;99.90;;;;;;5050564;28;20196;-63
2022/05/11 07:08:38;;;;;;;1.00;1.00;;;23.10;99.90;;;;;;5065086;28;20210;-62
2022/05/11 07:13:50;;;;;;;1.55;1.10;;;23.50;99.90;;;;;;5050102;28;20214;-62
2022/05/11 07:16:18;;;;;;;1.00;1.00;;;23.60;99.90;;;;;;5024170;28;20227;-62
2022/05/11 07:18:45;;;;;;;1.00;1.00;;;23.70;99.90;;;;;;5029804;28;20277;-64
2022/05/11 07:21:12;;;;;;;1.00;1.00;;;23.90;99.90;;;;;;5031350;28;20262;-63
2022/05/11 07:23:39;;;;;;;0.80;0.80;;;24.00;99.90;;;;;;5031680;28;20346;-63
2022/05/11 07:26:06;;;;;;;1.20;1.10;;;24.20;99.90;;;;;;5032100;28;20232;-63
2022/05/11 07:28:33;;;;;;;1.00;1.00;;;24.30;99.90;;;;;;5037265;28;20287;-63
2022/05/11 07:31:00;;;;;;;1.00;1.00;;;24.40;99.90;;;;;;5041118;28;20601;-62
2022/05/11 07:33:31;;;;;;;1.10;1.10;;;24.60;99.90;;;;;;5040483;28;20678;-64
2022/05/11 07:35:58;;;;;;;0.90;0.90;;;24.70;99.90;;;;;;5039637;28;20239;-65
2022/05/11 07:38:25;;;;;;;1.00;1.00;;;24.80;99.90;;;;;;5035854;28;20231;-63
2022/05/11 07:40:52;;;;;;;0.80;0.80;;;24.90;99.90;;;;;;5032253;28;20240;-62
2022/05/11 07:43:20;;;;;;;1.38;0.90;;;25.00;99.90;;;;;;5031784;28;20228;-62
2022/05/11 07:45:47;;;;;;;1.00;1.00;;;25.00;99.90;;;;;;5029972;28;20300;-63
2022/05/11 07:48:14;;;;;;;0.80;0.80;;;25.20;99.90;;;;;;5031562;28;20239;-68
2022/05/11 07:50:42;;;;;;;0.90;0.90;;;25.30;99.90;;;;;;5031372;28;20209;-63
2022/05/11 07:53:09;;;;;;;0.95;0.95;;;25.40;99.90;;;;;;5031713;28;20773;-62
2022/05/11 07:55:36;;;;;;;1.35;1.25;;;25.50;99.90;;;;;;5031298;28;20280;-62
2022/05/11 08:00:48;;;;;;;0.90;0.90;;;25.60;99.90;;;;;;5029283;28;20208;-63
2022/05/11 08:03:15;;;;;;;0.90;0.90;;;25.70;99.90;;;;;;5031260;28;20673;-63
2022/05/11 08:05:43;;;;;;;0.82;0.82;;;25.80;99.90;;;;;;5031549;28;20204;-63
2022/05/11 08:08:10;;;;;;;0.90;0.90;;;25.90;99.90;;;;;;5033807;28;20201;-63
2022/05/11 08:10:41;;;;;;;1.00;1.00;;;26.00;99.90;;;;;;5034411;28;20291;-64
2022/05/11 08:13:09;;;;;;;0.80;0.80;;;26.20;99.90;;;;;;5036355;28;20311;-63
2022/05/11 08:15:38;;;;;;;0.93;0.93;;;26.20;99.90;;;;;;5032333;28;20263;-64
2022/05/11 08:18:07;;;;;;;1.00;1.00;;;26.30;99.90;;;;;;5032052;28;20718;-63
2022/05/11 08:20:36;;;;;;;1.05;1.05;;;26.40;99.90;;;;;;5030576;28;20207;-63
2022/05/11 08:23:07;;;;;;;1.17;1.00;;;26.50;99.90;;;;;;5031394;28;20221;-63
2022/05/11 08:25:36;;;;;;;1.00;1.00;;;26.60;99.90;;;;;;5031412;28;20286;-63
2022/05/11 08:28:08;;;;;;;1.00;1.00;;;26.70;99.90;;;;;;5020531;28;20663;-63
2022/05/11 08:33:26;;;;;;;1.10;1.10;;;26.80;99.90;;;;;;5015200;28;20842;-64
2022/05/11 08:35:55;;;;;;;1.00;1.00;;;26.80;99.90;;;;;;5015543;28;20231;-63
2022/05/11 08:38:25;;;;;;;1.00;1.00;;;27.00;99.90;;;;;;5015327;28;20208;-63
2022/05/11 08:40:57;;;;;;;0.95;0.95;;;27.00;99.90;;;;;;5014895;28;20576;-64
2022/05/11 08:43:25;;;;;;;0.95;0.95;;;27.10;99.90;;;;;;5015604;28;20252;-63
2022/05/11 08:46:03;;;;;;;1.13;1.05;;;27.20;99.90;;;;;;5014520;28;20259;-62
2022/05/11 08:48:40;;;;;;;1.13;1.13;;;27.30;99.90;;;;;;5015637;28;20299;-64
2022/05/11 08:51:13;;;;;;;0.80;0.80;;;27.40;99.90;;;;;;5019334;28;20303;-64
2022/05/11 08:53:42;;;;;;;0.85;0.85;;;27.50;99.90;;;;;;5029188;28;20221;-64
2022/05/11 08:56:15;;;;;;;0.80;0.80;;;27.60;99.90;;;;;;5037222;28;20264;-63
2022/05/11 08:58:49;;;;;;;0.90;0.90;;;27.70;99.90;;;;;;5036291;28;20212;-63
2022/05/11 09:01:21;;;;;;;1.10;1.10;;;27.80;99.90;;;;;;5034611;28;20208;-63
2022/05/11 09:03:53;;;;;;;0.98;0.98;;;27.80;99.90;;;;;;5034275;28;20738;-64
2022/05/11 09:06:24;;;;;;;1.00;1.00;;;27.90;99.90;;;;;;5016297;28;20202;-63
2022/05/11 09:08:52;;;;;;;1.10;1.10;;;28.00;99.90;;;;;;5014922;28;20263;-63
2022/05/11 09:11:26;;;;;;;2.00;1.10;;;27.90;99.90;;;;;;5014876;28;20232;-64
2022/05/11 09:13:52;;;;;;;1.17;1.10;;;28.00;99.90;;;;;;5014791;28;20312;-64
2022/05/11 09:16:24;;;;;;;0.80;0.80;;;28.10;99.90;;;;;;5014431;28;20324;-63
2022/05/11 09:18:51;;;;;;;0.80;0.80;;;28.20;99.90;;;;;;5014476;28;20284;-64
2022/05/11 09:21:30;;;;;;;1.10;1.10;;;28.30;99.90;;;;;;5013715;28;21006;-64
2022/05/11 09:24:09;;;;;;;1.00;1.00;;;28.50;99.90;;;;;;5014838;28;20221;-63
2022/05/11 09:26:39;;;;;;;1.00;1.00;;;28.50;99.90;;;;;;5014564;28;20620;-64
2022/05/11 09:29:21;;;;;;;2.03;1.65;;;28.50;99.90;;;;;;5015072;28;20215;-64
2022/05/11 09:31:50;;;;;;;1.10;1.10;;;28.60;99.90;;;;;;5014596;28;20296;-63
2022/05/11 09:34:26;;;;;;;0.90;0.90;;;28.70;99.90;;;;;;5014970;28;20236;-63
2022/05/11 09:36:57;;;;;;;0.93;0.93;;;28.80;99.90;;;;;;5016372;28;20592;-62
2022/05/11 09:39:27;;;;;;;0.90;0.90;;;28.80;99.90;;;;;;5022204;28;20274;-64
2022/05/11 09:42:01;;;;;;;1.45;1.00;;;28.90;99.90;;;;;;5029078;28;20197;-63
2022/05/11 09:44:42;;;;;;;0.88;0.88;;;28.90;99.90;;;;;;5029727;28;20185;-63
2022/05/11 09:47:27;;;;;;;1.73;1.10;;;29.00;99.90;;;;;;5019257;28;20562;-63
2022/05/11 09:49:54;;;;;;;1.17;1.10;;;29.10;99.90;;;;;;5018691;28;20666;-63
2022/05/11 09:52:34;;;;;;;1.13;1.02;;;29.10;99.90;;;;;;5016105;28;20217;-64
2022/05/11 09:55:13;;;;;;;1.00;1.00;;;29.00;99.90;;;;;;5014009;28;20296;-63
2022/05/11 09:57:41;;;;;;;0.90;0.90;;;29.00;99.90;;;;;;5013505;28;20209;-63
2022/05/11 10:00:20;;;;;;;0.82;0.82;;;29.20;99.90;;;;;;5012715;28;20389;-64
2022/05/11 10:02:51;;;;;;;0.88;0.88;;;29.40;99.90;;;;;;5013634;28;20751;-63
2022/05/11 10:05:24;;;;;;;1.00;1.00;;;29.50;99.90;;;;;;5013208;28;20281;-62
2022/05/11 10:07:56;;;;;;;1.25;1.20;;;29.40;99.90;;;;;;5014207;28;20202;-64
2022/05/11 10:10:29;;;;;;;0.90;0.90;;;29.40;99.90;;;;;;5013180;28;20296;-64
2022/05/11 10:13:00;;;;;;;0.90;0.90;;;29.50;99.90;;;;;;5013793;28;20233;-64
2022/05/11 10:24:05;;;;;;;1.08;1.00;;;29.80;99.90;;;;;;5014433;28;20212;-63
2022/05/11 10:26:43;;;;;;;1.00;1.00;;;29.70;99.90;;;;;;5013919;28;20268;-64
2022/05/11 10:29:19;;;;;;;0.90;0.90;;;29.70;99.90;;;;;;5013488;28;20190;-63
2022/05/11 10:31:54;;;;;;;0.98;0.98;;;29.80;99.90;;;;;;5012965;28;20215;-63
2022/05/11 10:34:32;;;;;;;2.15;1.10;;;29.90;99.90;;;;;;5012687;28;20256;-62
2022/05/11 10:37:07;;;;;;;2.05;1.00;;;29.90;99.90;;;;;;5012360;28;20624;-62
2022/05/11 10:39:46;;;;;;;1.15;1.00;;;30.00;99.90;;;;;;5011968;28;20225;-63
2022/05/11 10:42:27;;;;;;;0.80;0.80;;;30.00;99.90;;;;;;5012603;28;20259;-63
2022/05/11 10:45:08;;;;;;;0.90;0.90;;;30.10;99.90;;;;;;5012790;28;20667;-64
2022/05/11 10:47:48;;;;;;;1.40;1.00;;;30.20;99.90;;;;;;5013283;28;20300;-63
2022/05/11 10:50:26;;;;;;;1.00;1.00;;;30.30;99.90;;;;;;5013958;28;20197;-64
2022/05/11 10:53:12;;;;;;;1.05;1.05;;;30.30;99.90;;;;;;5014491;28;20320;-64
2022/05/11 10:55:50;;;;;;;1.15;1.00;;;30.30;99.90;;;;;;5012266;28;20618;-64
2022/05/11 10:58:43;;;;;;;1.10;1.00;;;30.30;99.90;;;;;;5012540;28;20277;-63
2022/05/11 11:01:12;;;;;;;1.20;1.10;;;30.40;99.90;;;;;;5011755;28;20300;-62
2022/05/11 11:04:04;;;;;;;1.30;1.10;;;30.30;99.90;;;;;;5012020;28;20316;-62
2022/05/11 11:09:40;;;;;;;1.13;0.88;;;30.50;99.90;;;;;;5012353;28;20282;-63
2022/05/11 11:12:23;;;;;;;1.00;1.00;;;30.50;99.90;;;;;;5011948;28;20606;-63
2022/05/11 11:14:57;;;;;;;0.90;0.90;;;30.50;99.90;;;;;;5011582;28;20209;-63
2022/05/11 11:17:26;;;;;;;0.98;0.98;;;30.60;99.90;;;;;;5012160;28;20299;-63
2022/05/11 11:19:56;;;;;;;0.90;0.90;;;30.60;99.90;;;;;;5011603;28;20213;-63
2022/05/11 11:22:23;;;;;;;0.85;0.85;;;30.60;99.90;;;;;;5012259;28;20264;-64
2022/05/11 11:25:21;;;;;;;1.00;1.00;;;30.50;99.90;;;;;;5012036;28;20292;-63
2022/05/11 11:28:08;;;;;;;0.90;0.90;;;30.50;99.90;;;;;;5012140;28;20300;-64
2022/05/11 11:30:37;;;;;;;0.95;0.95;;;30.60;99.90;;;;;;5012378;28;20251;-62
2022/05/11 11:33:23;;;;;;;1.15;1.05;;;30.70;99.90;;;;;;5011870;28;20879;-63
2022/05/11 11:35:57;;;;;;;6.60;1.17;;;30.80;99.90;;;;;;5011695;28;20312;-64
2022/05/11 11:38:28;;;;;;;0.90;0.90;;;30.80;99.90;;;;;;5012146;28;20196;-64
2022/05/11 11:41:16;;;;;;;0.90;0.90;;;30.70;99.90;;;;;;5011388;28;20193;-63
2022/05/11 11:43:53;;;;;;;1.10;0.90;;;30.80;99.90;;;;;;5012847;28;20717;-63
2022/05/11 11:46:34;;;;;;;0.90;0.90;;;30.80;99.90;;;;;;5012553;28;20193;-63
2022/05/11 11:49:08;;;;;;;0.80;0.80;;;31.00;99.90;;;;;;5012805;28;20643;-64
2022/05/11 11:51:56;;;;;;;0.90;0.90;;;30.90;99.90;;;;;;5011573;28;20604;-63
2022/05/11 11:54:29;;;;;;;1.10;1.10;;;31.00;99.90;;;;;;5018602;28;20247;-64
2022/05/11 11:56:58;;;;;;;1.00;1.00;;;31.00;99.90;;;;;;5015353;28;20212;-64
2022/05/11 11:59:40;;;;;;;0.80;0.80;;;31.10;99.90;;;;;;5015249;28;20303;-63
2022/05/11 12:02:17;;;;;;;1.98;1.08;;;31.10;99.90;;;;;;5013137;28;20234;-64
2022/05/11 12:04:53;;;;;;;0.70;0.70;;;31.10;99.90;;;;;;5013959;28;20669;-64
2022/05/11 12:16:01;;;;;;;0.90;0.90;;;30.90;99.90;;;;;;5016066;28;20244;-64
2022/05/11 12:18:33;;;;;;;1.10;1.00;;;30.90;99.90;;;;;;5015899;28;20559;-64
2022/05/11 12:21:01;;;;;;;0.70;0.70;;;30.90;99.90;;;;;;5014988;28;20641;-63
2022/05/11 12:23:33;;;;;;;1.10;1.10;;;30.90;99.90;;;;;;5015586;28;20258;-63
2022/05/11 12:26:04;;;;;;;1.15;1.05;;;31.10;99.90;;;;;;5016039;28;20189;-64
2022/05/11 12:28:36;;;;;;;0.82;0.82;;;31.30;99.90;;;;;;5015805;28;20209;-64
2022/05/11 12:31:03;;;;;;;0.90;0.90;;;31.40;99.70;;;;;;5014705;28;20271;-64
2022/05/11 12:33:34;;;;;;;0.90;0.90;;;31.30;99.50;;;;;;5015063;28;20264;-62
2022/05/11 12:36:01;;;;;;;1.02;1.00;;;31.20;99.70;;;;;;5015138;28;20196;-63
2022/05/11 12:38:31;;;;;;;0.80;0.80;;;31.20;99.90;;;;;;5015060;28;20237;-63
2022/05/11 12:41:00;;;;;;;3.80;1.50;;;31.30;99.90;;;;;;5014843;28;20606;-62
2022/05/11 12:43:29;;;;;;;1.08;1.08;;;31.30;99.90;;;;;;5014574;28;20316;-64
2022/05/11 12:45:58;;;;;;;1.00;1.00;;;31.40;99.90;;;;;;5014714;28;20242;-63
2022/05/11 12:48:26;;;;;;;1.00;1.00;;;31.40;99.90;;;;;;5014810;28;20299;-63
2022/05/11 12:50:59;;;;;;;1.00;1.00;;;31.40;99.20;;;;;;5014281;28;20209;-62
2022/05/11 12:53:29;;;;;;;0.90;0.90;;;31.40;99.90;;;;;;5014904;28;20221;-62
2022/05/11 12:56:12;;;;;;;0.80;0.80;;;31.50;99.90;;;;;;5021781;28;20202;-64
2022/05/11 12:58:44;;;;;;;1.00;1.00;;;31.60;99.90;;;;;;5014347;28;20284;-63
2022/05/11 13:01:14;;;;;;;0.70;0.70;;;31.70;97.60;;;;;;5013624;28;20209;-62
2022/05/11 13:03:42;;;;;;;1.00;1.00;;;31.70;98.60;;;;;;5014422;28;20233;-63
2022/05/11 13:06:20;;;;;;;1.30;1.20;;;31.70;97.80;;;;;;5014962;28;20617;-63
2022/05/11 13:08:49;;;;;;;0.88;0.88;;;31.70;97.80;;;;;;5014681;28;20190;-63
2022/05/11 13:11:18;;;;;;;2.38;1.10;;;31.80;97.80;;;;;;5013398;28;20300;-63
2022/05/11 13:13:48;;;;;;;0.90;0.90;;;31.80;97.40;;;;;;5013682;28;20281;-63
2022/05/11 13:16:18;;;;;;;0.75;0.75;;;31.80;98.20;;;;;;5020473;28;20208;-62
2022/05/11 13:18:47;;;;;;;0.90;0.90;;;31.80;98.50;;;;;;5039592;28;20223;-62
2022/05/11 13:21:29;;;;;;;0.77;0.77;;;31.90;98.70;;;;;;5033977;28;20208;-64
2022/05/11 13:23:56;;;;;;;0.90;0.90;;;32.00;98.40;;;;;;5016990;28;20221;-63
2022/05/11 13:26:34;;;;;;;0.82;0.82;;;32.10;98.70;;;;;;5018752;28;20221;-63
2022/05/11 13:29:09;;;;;;;1.00;0.98;;;32.20;97.60;;;;;;5018060;28;20209;-63
2022/05/11 13:31:37;;;;;;;0.80;0.80;;;32.10;97.60;;;;;;5013838;28;20248;-64
2022/05/11 13:34:06;;;;;;;0.70;0.70;;;32.00;97.00;;;;;;5015028;28;20691;-62
2022/05/11 13:36:42;;;;;;;1.10;1.00;;;32.00;97.40;;;;;;5030851;28;20214;-65
2022/05/11 13:39:28;;;;;;;1.00;0.90;;;31.90;97.10;;;;;;5037310;28;20227;-64
2022/05/11 13:42:01;;;;;;;1.10;1.00;;;31.90;96.80;;;;;;5052632;28;20646;-62
2022/05/11 13:44:33;;;;;;;1.02;0.90;;;31.90;95.90;;;;;;5052205;28;20728;-63
2022/05/11 13:49:45;;;;;;;0.80;0.80;;;31.70;96.30;;;;;;5051485;28;20191;-64
2022/05/11 13:52:33;;;;;;;0.82;0.82;;;31.60;96.00;;;;;;5050674;28;20323;-63
2022/05/11 13:55:01;;;;;;;0.90;0.90;;;31.70;95.90;;;;;;5050544;28;20200;-63